METAR Data
IDs: Format: Raw Decoded Include TAF

Data at: 2232 UTC 30 Jun 2022

METAR for:KGRD (Greenwood Cnty, GA, US)
Text:KGRD 302156Z AUTO VRB05KT 10SM FEW045 30/19 A3015 RMK AO2 SLP201 T03000194
Temperature: 30.0°C ( 86°F)
Dewpoint: 19.4°C ( 67°F) [RH = 53%]
Pressure (altimeter):30.15 inches Hg (1021.1 mb) [Sea level pressure: 1020.1 mb]
Winds:variable direction winds at 6 MPH (5 knots; 2.6 m/s)
Visibility:10 or more sm (16+ km)
Ceiling:at least 12,000 feet AGL
Clouds: few clouds at 4500 feet AGL
QC Flag:automated observation with no human augmentation

TAF for:KGRD (Greenwood Cnty, GA, US)
Text:No data found